Time;durP1;ratioP1;P1;durP2;ratioP2;P2;SDS_P1;SDS_P2;PMS_P1;PMS_P2;Temp;Humidity;BMP_temperature;BMP_pressure;BME280_temperature;BME280_humidity;BME280_pressure;Samples;Min_cycle;Max_cycle;Signal;HPM_P1;HPM_P2
2024/01/25 00:01:40;;;;;;;;;66.00;54.50;;;;;7.03;46.51;99926.69;4823809;29;8865;-79
2024/01/25 00:04:09;;;;;;;;;68.00;55.00;;;;;7.05;46.53;99932.78;4809091;29;8972;-79
2024/01/25 00:06:38;;;;;;;;;64.50;52.75;;;;;7.06;46.55;99944.97;4822082;29;8877;-79
2024/01/25 00:09:08;;;;;;;;;62.00;50.75;;;;;6.86;45.45;99953.66;4838837;29;8912;-78
2024/01/25 00:11:37;;;;;;;;;59.75;47.25;;;;;6.89;46.81;99944.97;4844331;29;8992;-78
2024/01/25 00:14:06;;;;;;;;;63.75;49.50;;;;;7.07;45.85;99950.22;4830079;29;8909;-80
2024/01/25 00:16:36;;;;;;;;;57.50;45.00;;;;;7.13;46.20;99951.94;4826498;29;8884;-80
2024/01/25 00:19:05;;;;;;;;;47.25;41.50;;;;;7.06;46.07;99945.88;4826681;29;8939;-82
2024/01/25 00:21:34;;;;;;;;;41.60;36.60;;;;;6.98;44.57;99950.22;4839291;29;8948;-81
2024/01/25 00:24:03;;;;;;;;;48.00;39.80;;;;;7.05;44.60;99966.78;4801928;29;8896;-79
2024/01/25 00:26:32;;;;;;;;;39.60;36.80;;;;;7.01;45.44;99988.56;4830978;29;8976;-83
2024/01/25 00:29:01;;;;;;;;;31.60;31.60;;;;;7.07;44.30;99988.56;4843167;29;8916;-78
2024/01/25 00:31:30;;;;;;;;;37.80;34.80;;;;;6.91;45.19;99987.69;4841029;29;8879;-79
2024/01/25 00:34:01;;;;;;;;;31.60;29.00;;;;;6.98;44.75;99978.97;4841145;29;8903;-78
2024/01/25 00:36:31;;;;;;;;;40.80;37.80;;;;;6.82;45.05;99979.81;4831489;29;9000;-78
2024/01/25 00:39:01;;;;;;;;;39.75;32.75;;;;;6.69;45.62;99985.00;4859991;29;8903;-78
2024/01/25 00:41:33;;;;;;;;;50.50;41.50;;;;;6.87;45.55;99980.66;4860094;29;8873;-78
2024/01/25 00:44:02;;;;;;;;;48.75;41.25;;;;;6.88;45.67;99969.34;4841772;29;8888;-79
2024/01/25 00:46:32;;;;;;;;;47.50;39.25;;;;;6.32;45.51;99999.69;4814638;29;8883;-79
2024/01/25 00:49:03;;;;;;;;;61.75;47.00;;;;;6.76;44.98;99992.84;4792141;29;8898;-79
2024/01/25 00:51:33;;;;;;;;;36.00;28.50;;;;;6.80;45.64;99992.84;4837467;29;8919;-79
2024/01/25 00:54:03;;;;;;;;;47.75;42.75;;;;;6.86;45.59;99994.59;4822616;29;8888;-78
2024/01/25 00:56:32;;;;;;;;;54.25;44.50;;;;;6.94;45.05;100002.50;4808290;29;8918;-78
2024/01/25 00:59:02;;;;;;;;;54.00;42.50;;;;;6.97;45.55;99998.13;4839475;29;9004;-78
2024/01/25 01:01:31;;;;;;;;;52.00;44.25;;;;;6.97;45.46;99992.06;4802898;29;8923;-80
2024/01/25 01:04:02;;;;;;;;;49.50;40.25;;;;;6.79;45.92;99979.78;4819385;29;9691;-77
2024/01/25 01:06:32;;;;;;;;;51.50;40.75;;;;;6.85;44.63;99990.25;4819381;29;9149;-78
2024/01/25 01:09:01;;;;;;;;;51.00;41.50;;;;;6.55;44.66;99999.78;4837561;29;9017;-79
2024/01/25 01:11:30;;;;;;;;;48.25;42.00;;;;;6.78;45.49;99999.81;4837791;29;8873;-78
2024/01/25 01:13:59;;;;;;;;;53.25;44.25;;;;;6.76;45.48;99985.00;4808475;29;8873;-78
2024/01/25 01:16:30;;;;;;;;;56.50;45.50;;;;;6.46;44.98;99981.47;4809593;29;9034;-77
2024/01/25 01:19:05;;;;;;;;;51.25;42.75;;;;;6.33;45.65;99983.16;4843243;29;9010;-76
2024/01/25 01:21:36;;;;;;;;;54.50;44.00;;;;;6.60;45.57;99995.41;4844721;29;9018;-78
2024/01/25 01:24:05;;;;;;;;;53.25;43.75;;;;;6.48;45.75;99983.19;4838221;29;8971;-77
2024/01/25 01:26:35;;;;;;;;;55.50;47.25;;;;;6.58;45.45;99978.88;4858354;29;8895;-76
2024/01/25 01:29:03;;;;;;;;;53.75;44.75;;;;;6.79;45.46;99985.00;4858437;29;8868;-77
2024/01/25 01:31:32;;;;;;;;;54.00;43.75;;;;;6.78;45.54;99981.53;4849059;29;8879;-78
2024/01/25 01:34:01;;;;;;;;;48.50;41.00;;;;;6.89;44.93;99974.63;4837215;29;8883;-78
2024/01/25 01:36:30;;;;;;;;;55.00;43.50;;;;;7.02;44.52;99970.28;4848784;29;8889;-78
2024/01/25 01:39:01;;;;;;;;;56.75;46.25;;;;;7.15;44.45;99975.50;4856787;29;9639;-78
2024/01/25 01:41:30;;;;;;;;;45.00;36.25;;;;;7.20;44.93;99955.44;4859572;29;8984;-76
2024/01/25 01:43:59;;;;;;;;;47.75;41.50;;;;;7.13;44.55;99958.94;4854945;29;8892;-77
2024/01/25 01:46:34;;;;;;;;;55.00;45.75;;;;;7.30;44.75;99951.94;4856004;29;8923;-78
2024/01/25 01:49:04;;;;;;;;;56.00;44.75;;;;;7.19;44.60;99969.38;4839119;29;8908;-78
2024/01/25 01:51:35;;;;;;;;;61.00;45.75;;;;;7.22;45.71;99972.00;4834747;29;8908;-80
2024/01/25 01:54:08;;;;;;;;;55.25;47.00;;;;;7.26;45.33;99965.91;4834319;29;8990;-77
2024/01/25 01:56:39;;;;;;;;;55.25;47.25;;;;;7.22;45.07;99975.47;4847273;29;8879;-77
2024/01/25 01:59:11;;;;;;;;;52.25;43.00;;;;;7.23;43.92;99974.63;4838930;29;8883;-78
2024/01/25 02:01:40;;;;;;;;;55.00;47.00;;;;;7.08;45.02;99985.94;4854555;29;8996;-78
2024/01/25 02:04:09;;;;;;;;;61.50;49.00;;;;;6.95;45.59;99980.72;4838032;29;8977;-76
2024/01/25 02:06:40;;;;;;;;;59.75;47.25;;;;;6.92;45.16;99976.34;4839104;29;9021;-77
2024/01/25 02:09:10;;;;;;;;;59.00;50.00;;;;;6.87;44.95;99978.03;4841131;29;8894;-76
2024/01/25 02:11:40;;;;;;;;;59.50;50.25;;;;;6.95;45.48;99967.66;4861946;29;8890;-77
2024/01/25 02:14:10;;;;;;;;;58.25;47.25;;;;;6.86;45.27;99961.50;4854328;29;8866;-78
2024/01/25 02:16:40;;;;;;;;;58.75;49.00;;;;;6.98;46.15;99955.44;4859556;29;8896;-78
2024/01/25 02:19:08;;;;;;;;;57.25;47.50;;;;;6.95;45.88;99952.84;4870168;29;8976;-77
2024/01/25 02:21:38;;;;;;;;;50.75;43.75;;;;;7.01;45.27;99959.81;4862161;29;8886;-77
2024/01/25 02:24:08;;;;;;;;;60.75;48.00;;;;;6.93;45.47;99959.81;4838914;29;8954;-77
2024/01/25 02:26:39;;;;;;;;;59.50;49.75;;;;;6.81;45.90;99972.81;4870427;29;8867;-77
2024/01/25 02:29:09;;;;;;;;;54.75;46.25;;;;;6.83;45.06;99969.34;4857734;29;8872;-78
2024/01/25 02:31:38;;;;;;;;;49.25;44.00;;;;;6.60;44.89;99968.44;4873004;29;8899;-78
2024/01/25 02:34:07;;;;;;;;;53.75;46.00;;;;;6.23;46.13;99968.34;4859889;29;8875;-78
2024/01/25 02:36:36;;;;;;;;;45.25;39.75;;;;;6.40;46.10;99963.16;4836855;29;8946;-77
2024/01/25 02:39:05;;;;;;;;;54.25;43.75;;;;;6.45;45.47;99969.25;4852486;29;8872;-76
2024/01/25 02:41:36;;;;;;;;;55.25;44.25;;;;;6.69;45.64;99956.25;4838169;29;8955;-76
2024/01/25 02:44:05;;;;;;;;;58.25;46.25;;;;;6.58;45.17;99962.34;4837029;29;9026;-77
2024/01/25 02:46:34;;;;;;;;;48.50;42.25;;;;;6.63;46.40;99955.38;4838480;29;9017;-78
2024/01/25 02:49:03;;;;;;;;;51.25;43.50;;;;;6.71;45.44;99956.25;4806852;29;8899;-76
2024/01/25 02:51:32;;;;;;;;;28.50;27.75;;;;;6.55;44.62;99957.09;4836483;29;8883;-79
2024/01/25 02:54:01;;;;;;;;;46.50;40.50;;;;;6.62;45.43;99957.09;4821301;29;9045;-77
2024/01/25 02:56:34;;;;;;;;;50.75;44.25;;;;;6.58;45.52;99941.44;4852350;29;8887;-77
2024/01/25 02:59:04;;;;;;;;;48.50;42.25;;;;;6.29;45.50;99977.06;4811546;29;8894;-77
2024/01/25 03:01:39;;;;;;;;;50.25;42.00;;;;;6.38;44.89;99968.38;4820702;29;8925;-78
2024/01/25 03:04:08;;;;;;;;;43.50;39.50;;;;;6.60;45.06;99974.53;4840391;29;8953;-77
2024/01/25 03:06:37;;;;;;;;;48.50;42.25;;;;;6.67;45.13;99970.19;4839183;29;8876;-79
2024/01/25 03:09:06;;;;;;;;;48.00;42.00;;;;;6.74;44.99;99958.88;4851886;29;8896;-77
2024/01/25 03:11:35;;;;;;;;;50.75;40.50;;;;;6.87;44.35;99968.47;4848216;29;8864;-78
2024/01/25 03:14:06;;;;;;;;;49.25;40.25;;;;;6.92;44.20;99965.03;4840334;29;9616;-78
2024/01/25 03:16:35;;;;;;;;;44.50;39.50;;;;;6.90;44.16;99955.44;4824120;29;8885;-77
2024/01/25 03:19:03;;;;;;;;;50.00;40.00;;;;;7.01;44.59;99955.44;4855068;29;8873;-77
2024/01/25 03:21:32;;;;;;;;;43.75;37.75;;;;;7.11;44.65;99964.16;4841487;29;9637;-78
2024/01/25 03:24:01;;;;;;;;;54.75;43.50;;;;;7.22;44.39;99959.78;4837762;29;8879;-77
2024/01/25 03:26:30;;;;;;;;;48.25;40.25;;;;;7.21;44.10;99957.19;4837045;29;9014;-77
2024/01/25 03:29:00;;;;;;;;;44.20;40.20;;;;;7.22;44.09;99946.72;4821188;29;9034;-77
2024/01/25 03:31:30;;;;;;;;;46.25;40.50;;;;;7.20;43.78;99943.25;4837599;29;9587;-76
2024/01/25 03:33:59;;;;;;;;;42.25;39.00;;;;;7.33;44.11;99946.72;4838043;29;8891;-78
2024/01/25 03:36:29;;;;;;;;;42.25;36.00;;;;;7.34;43.54;99939.75;4835158;29;8876;-76
2024/01/25 03:38:57;;;;;;;;;48.50;39.25;;;;;6.96;44.21;99933.66;4851960;29;9710;-78
2024/01/25 03:41:29;;;;;;;;;46.00;40.75;;;;;7.13;44.41;99930.19;4852169;29;8880;-78
2024/01/25 03:43:57;;;;;;;;;50.50;43.25;;;;;7.10;44.03;99925.84;4824515;29;9033;-79
2024/01/25 03:46:26;;;;;;;;;53.50;44.50;;;;;7.04;43.79;99933.66;4844197;29;8881;-79
2024/01/25 03:48:57;;;;;;;;;50.00;41.75;;;;;7.02;44.15;99940.63;4858531;29;9028;-79
2024/01/25 03:51:26;;;;;;;;;49.25;40.75;;;;;6.96;44.14;99949.34;4859407;29;8859;-80
2024/01/25 03:53:57;;;;;;;;;48.25;43.00;;;;;7.06;43.96;99950.22;4863966;29;8875;-77
2024/01/25 03:56:27;;;;;;;;;50.00;43.25;;;;;6.85;44.15;99964.09;4845189;29;8897;-78
2024/01/25 03:58:56;;;;;;;;;45.00;39.75;;;;;7.08;44.24;99956.34;4846865;29;8876;-79
2024/01/25 04:01:25;;;;;;;;;43.25;40.00;;;;;6.69;44.51;99961.47;4873605;29;8877;-80
2024/01/25 04:04:00;;;;;;;;;47.00;39.50;;;;;6.97;43.78;99942.41;4859176;29;8869;-78
2024/01/25 04:06:29;;;;;;;;;49.25;42.25;;;;;6.81;44.49;99951.91;4853265;29;8878;-79
2024/01/25 04:08:58;;;;;;;;;54.00;44.00;;;;;6.85;44.26;99951.03;4844628;29;8900;-77
2024/01/25 04:11:27;;;;;;;;;46.25;41.25;;;;;6.95;44.79;99937.16;4813693;29;8881;-77
2024/01/25 04:13:56;;;;;;;;;51.25;40.25;;;;;7.09;44.54;99937.16;4797571;29;8983;-78
2024/01/25 04:16:25;;;;;;;;;51.25;44.75;;;;;7.00;44.30;99944.97;4824584;29;8874;-77
2024/01/25 04:18:54;;;;;;;;;50.75;43.75;;;;;6.83;44.49;99937.09;4841541;29;8878;-79
2024/01/25 04:21:25;;;;;;;;;55.25;43.75;;;;;6.96;43.53;99941.50;4840954;29;9653;-78
2024/01/25 04:23:54;;;;;;;;;57.50;44.25;;;;;6.97;43.78;99951.09;4837567;29;8972;-77
2024/01/25 04:26:23;;;;;;;;;52.50;43.25;;;;;6.98;43.96;99936.28;4846751;29;8938;-78
2024/01/25 04:28:52;;;;;;;;;54.75;44.25;;;;;6.70;43.79;99947.56;4855889;29;8936;-79
2024/01/25 04:31:21;;;;;;;;;42.00;39.25;;;;;6.80;44.98;99945.81;4856004;29;8886;-81
2024/01/25 04:33:50;;;;;;;;;60.50;46.25;;;;;6.88;43.74;99951.06;4856012;29;8982;-77
2024/01/25 04:36:19;;;;;;;;;55.50;44.00;;;;;6.95;43.82;99946.75;4834652;29;8925;-78
2024/01/25 04:38:50;;;;;;;;;59.50;46.50;;;;;6.85;44.22;99951.03;4832355;29;8871;-79
2024/01/25 04:41:19;;;;;;;;;50.00;42.00;;;;;6.97;43.52;99948.47;4838548;29;8867;-77
2024/01/25 04:43:47;;;;;;;;;56.75;46.00;;;;;7.00;43.89;99944.97;4838361;29;8929;-78
2024/01/25 04:46:17;;;;;;;;;52.25;44.00;;;;;6.89;43.78;99947.59;4804500;29;8887;-77
2024/01/25 04:48:46;;;;;;;;;46.00;39.50;;;;;7.04;43.60;99942.38;4810247;29;8887;-77
2024/01/25 04:51:19;;;;;;;;;64.75;52.25;;;;;6.85;44.65;99943.19;4808156;29;8894;-77
2024/01/25 04:53:50;;;;;;;;;64.75;52.25;;;;;6.90;43.38;99944.13;4800763;29;8902;-76
2024/01/25 04:56:19;;;;;;;;;55.50;46.50;;;;;6.99;44.97;99938.03;4787428;29;9039;-77
2024/01/25 04:58:47;;;;;;;;;50.50;43.75;;;;;7.05;44.42;99948.47;4817015;29;8918;-79
2024/01/25 05:01:17;;;;;;;;;52.00;42.50;;;;;6.54;45.98;99953.63;4821417;29;8875;-78
2024/01/25 05:03:46;;;;;;;;;52.00;42.80;;;;;6.51;45.14;99958.81;4819741;29;10067;-78
2024/01/25 05:06:15;;;;;;;;;44.75;40.50;;;;;6.87;45.29;99944.06;4821857;29;8894;-77
2024/01/25 05:08:44;;;;;;;;;47.33;42.33;;;;;6.83;44.71;99944.94;4824677;29;8880;-77
2024/01/25 05:11:15;;;;;;;;;54.75;43.00;;;;;6.94;43.78;99956.31;4822901;29;8892;-76
2024/01/25 05:13:43;;;;;;;;;46.00;41.25;;;;;7.01;44.48;99944.13;4802573;29;8895;-78
2024/01/25 05:16:13;;;;;;;;;58.00;47.00;;;;;7.05;44.27;99943.25;4814491;29;8900;-76
2024/01/25 05:18:41;;;;;;;;;47.50;41.00;;;;;7.15;44.17;99951.97;4821707;29;8907;-80
2024/01/25 05:21:11;;;;;;;;;66.75;53.50;;;;;7.06;45.08;99961.56;4837204;29;8896;-77
2024/01/25 05:23:40;;;;;;;;;51.50;44.00;;;;;6.98;44.21;99970.25;4837978;29;8868;-78
2024/01/25 05:26:09;;;;;;;;;52.50;44.00;;;;;7.02;44.89;99966.75;4823038;29;9608;-79
2024/01/25 05:28:39;;;;;;;;;51.75;43.50;;;;;6.97;44.44;99984.22;4844754;29;8874;-78
2024/01/25 05:31:12;;;;;;;;;51.00;43.00;;;;;6.89;45.39;99987.69;4837359;29;8920;-77
2024/01/25 05:33:41;;;;;;;;;47.50;41.50;;;;;6.99;45.56;99982.47;4807760;29;8920;-77
2024/01/25 05:36:12;;;;;;;;;60.00;47.75;;;;;6.80;44.48;99974.56;4827551;29;9971;-75
2024/01/25 05:38:41;;;;;;;;;59.25;48.25;;;;;7.14;44.71;99973.75;4823093;29;8891;-78
2024/01/25 05:41:10;;;;;;;;;69.25;55.00;;;;;7.25;44.43;99980.72;4854001;29;8863;-76
2024/01/25 05:43:40;;;;;;;;;55.25;46.75;;;;;7.33;44.74;99979.84;4837894;29;8883;-77
2024/01/25 05:46:09;;;;;;;;;55.00;46.00;;;;;7.35;43.93;99972.88;4823615;29;8967;-77
2024/01/25 05:48:39;;;;;;;;;59.75;47.50;;;;;7.43;44.00;99977.22;4851039;29;8889;-76
2024/01/25 05:51:10;;;;;;;;;52.25;43.75;;;;;7.49;44.02;99986.78;4792892;29;9080;-78
2024/01/25 05:53:39;;;;;;;;;58.00;44.50;;;;;7.22;44.30;99980.72;4837364;29;8938;-78
2024/01/25 05:56:08;;;;;;;;;68.00;53.75;;;;;6.87;45.03;99983.28;4852492;29;8937;-78
2024/01/25 05:58:37;;;;;;;;;55.75;45.50;;;;;6.92;43.84;99986.81;4820531;29;8895;-77
2024/01/25 06:01:08;;;;;;;;;50.00;43.00;;;;;6.90;43.32;99996.38;4834523;29;8918;-77
2024/01/25 06:03:37;;;;;;;;;63.00;49.25;;;;;7.11;44.08;99995.53;4821640;29;8917;-77
2024/01/25 06:06:07;;;;;;;;;60.75;45.00;;;;;7.29;44.73;99987.69;4855127;29;8899;-78
2024/01/25 06:08:37;;;;;;;;;57.75;45.75;;;;;7.39;44.35;99993.78;4859061;29;8889;-77
2024/01/25 06:11:06;;;;;;;;;57.00;45.75;;;;;7.45;44.23;99995.53;4871764;29;8893;-78
2024/01/25 06:13:35;;;;;;;;;49.75;42.75;;;;;7.51;45.46;100000.75;4866370;29;8885;-77
2024/01/25 06:16:05;;;;;;;;;51.25;41.00;;;;;7.50;44.19;99998.16;4837684;29;9642;-78
2024/01/25 06:18:35;;;;;;;;;59.75;48.75;;;;;7.50;45.65;99991.16;4832562;29;8929;-77
2024/01/25 06:21:04;;;;;;;;;57.75;47.75;;;;;7.52;44.25;99989.41;4833316;29;8880;-75
2024/01/25 06:23:33;;;;;;;;;59.50;49.75;;;;;7.57;44.47;99984.16;4821306;29;8896;-75
2024/01/25 06:26:02;;;;;;;;;55.75;46.75;;;;;7.64;44.14;99978.06;4837224;29;8876;-76
2024/01/25 06:28:31;;;;;;;;;59.00;49.25;;;;;7.68;44.73;99995.47;4835610;29;9010;-76
2024/01/25 06:31:02;;;;;;;;;57.50;48.00;;;;;7.67;43.61;99980.69;4837487;29;8861;-75
2024/01/25 06:33:31;;;;;;;;;55.50;47.75;;;;;7.71;44.60;99989.38;4838874;29;8891;-75
2024/01/25 06:36:02;;;;;;;;;58.75;46.25;;;;;7.72;43.71;99972.78;4854306;29;8948;-75
2024/01/25 06:38:30;;;;;;;;;56.00;46.50;;;;;7.66;44.56;99976.31;4856317;29;9013;-74
2024/01/25 06:40:59;;;;;;;;;53.75;43.00;;;;;7.73;44.48;99967.56;4856429;29;8995;-75
2024/01/25 06:43:28;;;;;;;;;59.50;48.25;;;;;7.78;43.90;99967.53;4855677;29;8905;-77
2024/01/25 06:45:57;;;;;;;;;58.50;47.25;;;;;7.81;43.69;99967.53;4838630;29;8908;-76
2024/01/25 06:48:26;;;;;;;;;58.00;47.00;;;;;7.87;44.87;99970.13;4854575;29;8881;-78
2024/01/25 06:50:56;;;;;;;;;63.25;48.50;;;;;7.91;43.37;99963.16;4854813;29;8869;-76
2024/01/25 06:53:26;;;;;;;;;58.25;47.75;;;;;7.85;44.08;99972.78;4839272;29;9643;-76
2024/01/25 06:55:55;;;;;;;;;49.25;41.75;;;;;7.87;43.79;99971.03;4854881;29;8977;-76
2024/01/25 06:58:24;;;;;;;;;54.50;44.50;;;;;7.88;43.88;99966.66;4838657;29;8924;-76
2024/01/25 07:00:53;;;;;;;;;50.00;43.75;;;;;7.80;44.27;99964.06;4860673;29;8913;-80
2024/01/25 07:03:23;;;;;;;;;43.75;38.00;;;;;7.86;43.96;99971.88;4860185;29;8889;-77
2024/01/25 07:05:52;;;;;;;;;57.50;44.50;;;;;7.90;44.41;99977.13;4855444;29;8889;-76
2024/01/25 07:08:21;;;;;;;;;57.00;47.75;;;;;7.94;43.60;99974.47;4855345;29;8884;-75
2024/01/25 07:10:51;;;;;;;;;56.75;46.75;;;;;8.03;44.75;99973.59;4857082;29;8865;-77
2024/01/25 07:13:21;;;;;;;;;56.25;46.50;;;;;8.05;44.22;99969.22;4856882;29;8889;-76
2024/01/25 07:15:51;;;;;;;;;48.25;42.00;;;;;8.07;43.86;99970.94;4856265;29;8881;-78
2024/01/25 07:18:21;;;;;;;;;58.25;49.00;;;;;8.14;43.83;99970.94;4841153;29;9170;-75
2024/01/25 07:20:50;;;;;;;;;51.25;44.50;;;;;8.20;42.90;99968.28;4846447;29;8970;-75
2024/01/25 07:23:19;;;;;;;;;48.75;42.50;;;;;8.27;43.72;99964.78;4861969;29;8913;-75
2024/01/25 07:25:48;;;;;;;;;45.25;40.50;;;;;8.24;42.81;99960.41;4843461;29;8865;-77
2024/01/25 07:28:21;;;;;;;;;57.00;44.75;;;;;8.30;43.25;99956.00;4859998;29;8908;-76
2024/01/25 07:30:50;;;;;;;;;46.50;38.50;;;;;8.29;43.87;99955.16;4857834;29;8995;-76
2024/01/25 07:33:19;;;;;;;;;46.50;37.75;;;;;8.27;42.81;99949.06;4858612;29;9696;-77
2024/01/25 07:35:48;;;;;;;;;49.00;42.25;;;;;8.35;43.64;99959.53;4858092;29;8889;-78
2024/01/25 07:38:17;;;;;;;;;56.50;43.00;;;;;8.37;43.73;99965.63;4841853;29;8893;-76
2024/01/25 07:40:46;;;;;;;;;45.50;40.25;;;;;8.43;43.91;99965.59;4842445;29;8888;-77
2024/01/25 07:43:15;;;;;;;;;53.50;42.50;;;;;8.52;43.17;99965.53;4857586;29;8897;-75
2024/01/25 07:45:46;;;;;;;;;51.50;44.00;;;;;8.41;41.87;99962.09;4873425;29;8984;-77
2024/01/25 07:48:15;;;;;;;;;52.25;42.25;;;;;8.41;43.47;99969.97;4835213;29;9102;-76
2024/01/25 07:50:44;;;;;;;;;50.00;42.00;;;;;8.53;42.50;99966.41;4848861;29;9006;-78
2024/01/25 07:53:14;;;;;;;;;53.25;43.50;;;;;8.54;43.15;99966.38;4848205;29;8937;-78
2024/01/25 07:55:44;;;;;;;;;50.75;42.25;;;;;8.54;43.06;99966.38;4857570;29;9663;-77
2024/01/25 07:58:13;;;;;;;;;46.25;40.50;;;;;8.47;41.98;99969.06;4858350;29;8980;-76
2024/01/25 08:00:42;;;;;;;;;52.25;42.75;;;;;8.54;42.55;99969.00;4857372;29;8889;-75
2024/01/25 08:03:12;;;;;;;;;39.25;37.25;;;;;8.58;42.20;99959.38;4841389;29;8904;-77
2024/01/25 08:05:41;;;;;;;;;34.60;32.60;;;;;7.66;43.38;99977.19;4858751;29;9770;-76
2024/01/25 08:08:18;;;;;;;;;34.40;31.00;;;;;8.03;42.92;99973.59;4863376;29;8999;-75
2024/01/25 08:10:47;;;;;;;;;30.20;25.20;;;;;7.98;42.50;99975.34;4865112;29;8880;-76
2024/01/25 08:13:16;;;;;;;;;38.20;35.40;;;;;7.33;43.08;99978.09;4813383;29;8979;-76
2024/01/25 08:15:45;;;;;;;;;30.00;28.20;;;;;7.70;42.82;99971.94;4805711;29;9022;-78
2024/01/25 08:18:16;;;;;;;;;26.20;24.20;;;;;7.37;43.56;99968.50;4801847;29;9755;-76
2024/01/25 08:20:45;;;;;;;;;28.80;27.60;;;;;7.64;43.58;99973.69;4802733;29;8875;-79
2024/01/25 08:23:14;;;;;;;;;33.40;31.80;;;;;7.79;44.28;99972.78;4801820;29;9017;-76
2024/01/25 08:25:43;;;;;;;;;33.80;32.80;;;;;7.96;42.86;99972.72;4786376;29;8912;-77
2024/01/25 08:28:12;;;;;;;;;33.80;30.20;;;;;7.91;41.84;99965.75;4786245;29;8902;-79
2024/01/25 08:30:41;;;;;;;;;33.20;29.00;;;;;7.86;42.43;99971.88;4771448;29;8901;-77
2024/01/25 08:33:10;;;;;;;;;36.80;35.60;;;;;7.96;42.70;99974.47;4786709;29;8890;-78
2024/01/25 08:35:42;;;;;;;;;31.00;28.80;;;;;7.85;43.55;99961.41;4801554;29;8886;-75
2024/01/25 08:38:11;;;;;;;;;35.20;31.60;;;;;8.09;42.15;99962.22;4801563;29;8882;-76
2024/01/25 08:40:40;;;;;;;;;34.40;32.20;;;;;7.54;43.25;99968.50;4801666;29;8890;-76
2024/01/25 08:43:08;;;;;;;;;37.40;33.80;;;;;7.39;43.63;99962.41;4786666;29;8886;-76
2024/01/25 08:45:38;;;;;;;;;39.00;35.80;;;;;7.26;44.60;99963.28;4786457;29;8905;-77
2024/01/25 08:48:08;;;;;;;;;33.00;30.80;;;;;7.92;42.82;99957.91;4785928;29;8905;-78
2024/01/25 08:50:38;;;;;;;;;40.60;34.20;;;;;8.14;43.09;99971.81;4804844;29;8882;-79
2024/01/25 08:53:08;;;;;;;;;33.80;30.80;;;;;8.11;42.78;99968.31;4840780;29;8989;-78
2024/01/25 08:55:37;;;;;;;;;42.00;37.80;;;;;7.50;44.31;99975.47;4862629;29;10055;-76
2024/01/25 08:58:06;;;;;;;;;34.00;32.40;;;;;7.36;43.90;99983.34;4874234;29;8899;-77
2024/01/25 09:00:35;;;;;;;;;41.20;37.20;;;;;7.30;44.30;99983.31;4850969;29;8883;-75
2024/01/25 09:03:04;;;;;;;;;42.40;35.40;;;;;7.69;43.57;99992.00;4883885;29;9614;-78
2024/01/25 09:05:38;;;;;;;;;45.20;38.00;;;;;8.15;44.47;99986.63;4844809;29;9050;-77
2024/01/25 09:08:08;;;;;;;;;40.20;34.20;;;;;8.32;42.66;99990.97;4843433;29;8921;-76
2024/01/25 09:10:38;;;;;;;;;53.75;45.25;;;;;8.14;43.00;99977.03;4859015;29;8921;-76
2024/01/25 09:13:07;;;;;;;;;38.00;35.50;;;;;7.74;43.51;99987.66;4843439;29;8895;-75
2024/01/25 09:15:37;;;;;;;;;48.00;41.00;;;;;8.29;42.97;99983.97;4841251;29;8885;-76
2024/01/25 09:18:06;;;;;;;;;45.50;40.25;;;;;8.43;42.88;99983.91;4838867;29;8875;-76
2024/01/25 09:20:36;;;;;;;;;47.75;41.25;;;;;8.41;42.61;99980.44;4822471;29;8938;-76
2024/01/25 09:23:05;;;;;;;;;46.40;38.80;;;;;8.57;41.92;99983.84;4839463;29;9011;-76
2024/01/25 09:25:36;;;;;;;;;43.60;39.40;;;;;8.44;42.38;99986.53;4838010;29;8879;-77
2024/01/25 09:28:05;;;;;;;;;46.60;39.60;;;;;8.68;42.88;99986.41;4838063;29;8891;-75
2024/01/25 09:30:34;;;;;;;;;49.40;40.00;;;;;9.07;43.34;99981.78;4853550;29;8895;-75
2024/01/25 09:33:03;;;;;;;;;45.00;39.40;;;;;9.09;41.08;99993.13;4838296;29;8891;-76
2024/01/25 09:35:33;;;;;;;;;43.20;36.60;;;;;8.31;42.81;99987.47;4839228;29;9780;-76
2024/01/25 09:38:02;;;;;;;;;48.00;39.25;;;;;7.39;44.47;100004.25;4839182;29;8887;-76
2024/01/25 09:40:33;;;;;;;;;56.25;45.25;;;;;7.33;45.17;100003.41;4852706;29;9134;-75
2024/01/25 09:43:03;;;;;;;;;41.50;33.25;;;;;7.31;45.01;100008.63;4837167;29;8872;-76
2024/01/25 09:45:34;;;;;;;;;63.50;49.25;;;;;7.21;45.24;100012.09;4838641;29;8903;-77
2024/01/25 09:48:04;;;;;;;;;50.00;41.00;;;;;7.12;45.04;100009.47;4837949;29;8887;-76
2024/01/25 09:50:35;;;;;;;;;48.60;40.40;;;;;7.31;44.63;100005.13;4855568;29;8972;-78
2024/01/25 09:53:06;;;;;;;;;52.75;43.50;;;;;7.16;44.76;100006.00;4859927;29;8889;-77
2024/01/25 09:55:40;;;;;;;;;58.50;47.25;;;;;6.85;45.33;100003.31;4855255;29;9016;-76
2024/01/25 09:58:11;;;;;;;;;49.40;40.40;;;;;6.79;45.62;99993.72;4854692;29;9004;-76
2024/01/25 10:00:42;;;;;;;;;56.25;45.50;;;;;6.79;46.13;99995.47;4854679;29;8866;-75
2024/01/25 10:03:11;;;;;;;;;54.00;43.25;;;;;6.56;46.64;100013.69;4854604;29;9672;-76
2024/01/25 10:05:41;;;;;;;;;57.25;44.25;;;;;6.48;47.33;100011.94;4857255;29;8906;-76
2024/01/25 10:08:14;;;;;;;;;48.20;39.80;;;;;7.10;46.76;99993.81;4854490;29;9024;-75
2024/01/25 10:10:45;;;;;;;;;42.60;35.60;;;;;6.64;50.36;99963.19;4855084;29;8928;-76
2024/01/25 10:13:16;;;;;;;;;35.20;33.60;;;;;7.05;52.36;99945.88;4839591;29;8878;-74
2024/01/25 10:15:47;;;;;;;;;37.60;34.60;;;;;7.17;52.07;99942.38;4853869;29;9661;-74
2024/01/25 10:18:16;;;;;;;;;33.40;31.00;;;;;7.64;50.93;99938.81;4854068;29;8997;-76
2024/01/25 10:20:57;;;;;;;;;32.40;26.20;;;;;7.93;50.47;99933.50;4838561;29;8882;-76
2024/01/25 10:23:27;;;;;;;;;33.40;31.40;;;;;8.14;49.54;99935.16;4853672;29;8894;-75
2024/01/25 10:25:56;;;;;;;;;40.00;35.80;;;;;8.09;48.69;99936.03;4854558;29;8901;-76
2024/01/25 10:28:28;;;;;;;;;34.60;32.00;;;;;7.96;49.17;99943.94;4855319;29;8873;-75
2024/01/25 10:30:58;;;;;;;;;40.00;35.00;;;;;8.21;48.18;99936.88;4854371;29;8895;-76
2024/01/25 10:33:28;;;;;;;;;36.80;32.20;;;;;7.08;50.97;99951.97;4855450;29;9918;-76
2024/01/25 10:36:01;;;;;;;;;45.20;35.60;;;;;7.17;51.73;99945.84;4852038;29;8884;-76
2024/01/25 10:38:32;;;;;;;;;37.00;34.60;;;;;7.13;51.99;99946.72;4838610;29;9002;-76
2024/01/25 10:41:03;;;;;;;;;34.80;31.00;;;;;7.62;51.12;99951.03;4857886;29;8903;-76
2024/01/25 10:43:34;;;;;;;;;38.40;37.20;;;;;7.52;50.61;99958.03;4855050;29;9762;-77
2024/01/25 10:46:04;;;;;;;;;45.20;36.60;;;;;7.29;52.08;99952.84;4856446;29;8915;-77
2024/01/25 10:48:33;;;;;;;;;31.80;30.40;;;;;7.25;50.98;99954.56;4840158;29;8889;-76
2024/01/25 10:51:03;;;;;;;;;29.60;27.20;;;;;6.51;53.85;99964.94;4854693;29;8868;-76
2024/01/25 10:53:34;;;;;;;;;41.20;37.60;;;;;6.37;54.84;99971.00;4854194;29;8873;-76
2024/01/25 10:56:04;;;;;;;;;35.00;33.80;;;;;6.38;54.62;99967.50;4856310;29;8893;-76
2024/01/25 10:58:35;;;;;;;;;29.40;27.20;;;;;6.45;55.27;99962.28;4856444;29;8873;-76
2024/01/25 11:01:11;;;;;;;;;37.20;31.40;;;;;6.34;55.41;99969.22;4856143;29;8869;-77
2024/01/25 11:03:47;;;;;;;;;28.40;26.60;;;;;6.55;55.05;99959.69;4839289;29;8868;-76
2024/01/25 11:06:21;;;;;;;;;22.40;21.80;;;;;6.34;54.85;99956.16;4871209;29;9050;-74
2024/01/25 11:08:50;;;;;;;;;25.60;25.40;;;;;6.74;54.28;99952.78;4857286;29;9004;-76
2024/01/25 11:11:20;;;;;;;;;33.00;32.00;;;;;7.25;53.41;99949.34;4839894;29;9623;-77
2024/01/25 11:13:51;;;;;;;;;31.80;29.20;;;;;6.80;51.80;99964.13;4854925;29;8880;-76
2024/01/25 11:16:31;;;;;;;;;25.00;23.60;;;;;6.51;54.26;99969.28;4854077;29;8869;-77
2024/01/25 11:19:05;;;;;;;;;35.80;33.80;;;;;6.87;53.28;99964.97;4855398;29;8921;-78
2024/01/25 11:21:43;;;;;;;;;35.40;33.80;;;;;7.30;52.67;99965.03;4840197;29;8980;-74
2024/01/25 11:24:14;;;;;;;;;37.20;35.20;;;;;7.56;52.13;99949.28;4858592;29;8865;-75
2024/01/25 11:26:45;;;;;;;;;40.60;37.60;;;;;7.48;50.85;99962.38;4862074;29;8896;-75
2024/01/25 11:29:16;;;;;;;;;45.20;37.80;;;;;7.32;51.42;99955.44;4857958;29;8897;-77
2024/01/25 11:31:47;;;;;;;;;37.60;34.00;;;;;7.22;49.35;99958.94;4840316;29;9632;-75
2024/01/25 11:34:17;;;;;;;;;31.20;27.80;;;;;7.18;50.43;99950.22;4856522;29;8869;-77
2024/01/25 11:36:47;;;;;;;;;19.80;18.20;;;;;6.88;48.20;99945.81;4824172;29;8972;-75
2024/01/25 11:39:18;;;;;;;;;23.00;19.00;;;;;6.96;48.88;99933.66;4838770;29;8885;-76
2024/01/25 11:41:47;;;;;;;;;18.20;16.40;;;;;7.49;50.17;99929.25;4854950;29;8896;-75
2024/01/25 11:44:17;;;;;;;;;27.20;25.00;;;;;7.49;47.97;99926.63;4854589;29;8877;-75
2024/01/25 11:46:46;;;;;;;;;22.00;18.60;;;;;7.44;46.13;99924.03;4838456;29;8969;-76